createdAt,value
2022-09-01T00:01:51.210Z,74.71
2022-09-01T00:04:27.039Z,75.61
2022-09-01T00:06:55.200Z,75.57
2022-09-01T00:09:23.607Z,74.36
2022-09-01T00:11:53.416Z,75.10
2022-09-01T00:14:29.615Z,75.96
2022-09-01T00:17:02.610Z,76.04
2022-09-01T00:19:29.758Z,76.39
2022-09-01T00:21:57.318Z,77.81
2022-09-01T00:24:26.247Z,77.70
2022-09-01T00:26:53.790Z,76.66
2022-09-01T00:29:21.380Z,76.76
2022-09-01T00:31:49.699Z,77.97
2022-09-01T00:34:16.983Z,77.92
2022-09-01T00:36:43.649Z,77.05
2022-09-01T00:39:10.460Z,77.04
2022-09-01T00:41:39.618Z,76.54
2022-09-01T00:44:09.505Z,76.79
2022-09-01T00:46:49.462Z,75.67
2022-09-01T00:49:22.441Z,76.50
2022-09-01T00:51:53.214Z,76.63
2022-09-01T00:54:22.847Z,76.90
2022-09-01T00:56:57.344Z,77.00
2022-09-01T00:59:26.675Z,77.30
2022-09-01T01:01:54.924Z,75.94
2022-09-01T01:04:22.290Z,76.70
2022-09-01T01:06:58.766Z,76.82
2022-09-01T01:09:28.754Z,76.60
2022-09-01T01:11:57.652Z,76.36
2022-09-01T01:14:24.188Z,76.64
2022-09-01T01:16:52.245Z,77.11
2022-09-01T01:19:50.503Z,76.92
2022-09-01T01:23:00.826Z,77.00
2022-09-01T01:25:30.616Z,75.24
2022-09-01T01:28:07.895Z,75.51
2022-09-01T01:30:37.098Z,75.71
2022-09-01T01:33:04.648Z,75.41
2022-09-01T01:35:31.982Z,75.94
2022-09-01T01:37:58.695Z,76.80
2022-09-01T01:40:26.069Z,77.80
2022-09-01T01:42:54.215Z,77.29
2022-09-01T01:45:23.384Z,76.89
2022-09-01T01:47:53.564Z,78.76
2022-09-01T01:50:35.631Z,77.91
2022-09-01T01:53:11.541Z,78.83
2022-09-01T01:55:40.552Z,78.66
2022-09-01T01:58:09.866Z,81.30
2022-09-01T02:00:36.807Z,80.98
2022-09-01T02:03:03.342Z,80.50
2022-09-01T02:05:33.146Z,80.54
2022-09-01T02:08:04.601Z,80.57
2022-09-01T02:10:40.587Z,81.13
2022-09-01T02:13:07.654Z,80.50
2022-09-01T02:15:46.964Z,79.32
2022-09-01T02:18:16.572Z,80.44
2022-09-01T02:20:44.583Z,81.35
2022-09-01T02:23:11.722Z,80.67
2022-09-01T02:26:05.166Z,80.15
2022-09-01T02:28:34.962Z,80.25
2022-09-01T02:31:03.792Z,80.92
2022-09-01T02:33:32.518Z,79.67
2022-09-01T02:36:03.409Z,79.56
2022-09-01T02:38:31.191Z,80.04
2022-09-01T02:40:58.627Z,80.97
2022-09-01T02:43:28.457Z,79.96
2022-09-01T02:45:59.668Z,79.06
2022-09-01T02:48:32.922Z,79.10
2022-09-01T02:51:12.218Z,79.55
2022-09-01T02:53:39.444Z,80.20
2022-09-01T02:56:12.044Z,80.21
2022-09-01T02:58:46.263Z,80.44
2022-09-01T03:01:24.805Z,82.25
2022-09-01T03:03:55.702Z,80.05
2022-09-01T03:06:24.480Z,80.26
2022-09-01T03:08:53.999Z,81.22
2022-09-01T03:11:21.735Z,80.48
2022-09-01T03:13:48.421Z,80.67
2022-09-01T03:16:16.188Z,79.76
2022-09-01T03:18:45.455Z,79.24
2022-09-01T03:21:16.086Z,80.19
2022-09-01T03:23:46.792Z,80.74
2022-09-01T03:26:18.510Z,80.17
2022-09-01T03:28:45.832Z,79.50
2022-09-01T03:31:13.041Z,79.54
2022-09-01T03:33:39.964Z,80.11
2022-09-01T03:36:14.711Z,81.01
2022-09-01T03:38:43.972Z,80.12
2022-09-01T03:41:13.168Z,80.15
2022-09-01T03:43:46.870Z,80.79
2022-09-01T03:46:20.255Z,82.34
2022-09-01T03:48:50.707Z,81.44
2022-09-01T03:51:19.676Z,82.80
2022-09-01T03:53:47.326Z,82.47
2022-09-01T03:56:15.192Z,83.24
2022-09-01T03:58:47.196Z,82.80
2022-09-01T04:01:15.852Z,82.87
2022-09-01T04:03:49.144Z,82.60
2022-09-01T04:06:19.262Z,83.12
2022-09-01T04:08:47.192Z,83.37
2022-09-01T04:11:23.985Z,83.59
2022-09-01T04:13:52.353Z,83.22
2022-09-01T04:16:49.831Z,84.18
2022-09-01T04:19:26.149Z,84.50
2022-09-01T04:21:56.179Z,83.84
2022-09-01T04:24:24.427Z,84.33
2022-09-01T04:26:52.473Z,84.29
2022-09-01T04:29:27.301Z,84.73
2022-09-01T04:32:03.644Z,86.08
2022-09-01T04:34:37.359Z,86.11
2022-09-01T04:37:13.165Z,86.50
2022-09-01T04:39:51.323Z,86.49
2022-09-01T04:42:21.715Z,86.47
2022-09-01T04:44:48.776Z,86.49
2022-09-01T04:47:17.118Z,86.66
2022-09-01T04:49:45.567Z,87.33
2022-09-01T04:52:13.050Z,86.99
2022-09-01T04:54:40.114Z,87.20
2022-09-01T04:57:07.529Z,86.77
2022-09-01T04:59:34.424Z,87.10
2022-09-01T05:02:01.274Z,87.74
2022-09-01T05:04:32.532Z,87.01
2022-09-01T05:07:01.282Z,86.91
2022-09-01T05:09:36.074Z,85.95
2022-09-01T05:12:15.697Z,85.33
2022-09-01T05:14:48.375Z,86.64
2022-09-01T05:17:15.240Z,83.82
2022-09-01T05:19:45.099Z,85.45
2022-09-01T05:22:13.209Z,86.38
2022-09-01T05:24:42.127Z,83.90
2022-09-01T05:27:10.499Z,85.48
2022-09-01T05:29:38.545Z,84.83
2022-09-01T05:32:10.066Z,84.77
2022-09-01T05:34:42.450Z,84.54
2022-09-01T05:37:09.650Z,85.42
2022-09-01T05:39:38.208Z,84.72
2022-09-01T05:42:08.410Z,83.82
2022-09-01T05:44:36.213Z,83.91
2022-09-01T05:47:03.605Z,84.77
2022-09-01T05:49:33.243Z,84.64
2022-09-01T05:52:00.465Z,84.02
2022-09-01T05:54:27.655Z,83.88
2022-09-01T05:57:12.713Z,82.00
2022-09-01T05:59:54.054Z,82.75
2022-09-01T06:02:22.861Z,80.07
2022-09-01T06:04:50.449Z,76.24
2022-09-01T06:07:17.570Z,78.10
2022-09-01T06:09:47.883Z,77.96
2022-09-01T06:12:20.221Z,77.77
2022-09-01T06:14:48.375Z,76.11
2022-09-01T06:17:19.575Z,77.37
2022-09-01T06:19:49.083Z,77.27
2022-09-01T06:22:15.980Z,75.64
2022-09-01T06:24:44.164Z,76.33
2022-09-01T06:27:12.518Z,77.00
2022-09-01T06:29:42.105Z,75.65
2022-09-01T06:32:10.490Z,76.29
2022-09-01T06:34:40.446Z,75.89
2022-09-01T06:37:07.026Z,75.39
2022-09-01T06:39:34.463Z,74.51
2022-09-01T06:42:04.772Z,74.56
2022-09-01T06:44:32.735Z,73.72
2022-09-01T06:47:02.244Z,76.17
2022-09-01T06:49:34.869Z,73.05
2022-09-01T06:52:02.966Z,73.09
2022-09-01T06:54:34.288Z,70.45
2022-09-01T06:59:53.944Z,70.32
2022-09-01T07:02:22.292Z,70.66
2022-09-01T07:04:56.265Z,71.97
2022-09-01T07:10:25.755Z,69.48
2022-09-01T07:13:11.432Z,69.97
2022-09-01T07:18:31.262Z,69.10
2022-09-01T07:24:07.944Z,67.66
2022-09-01T07:26:35.662Z,65.42
2022-09-01T07:29:06.130Z,64.35
2022-09-01T07:34:46.444Z,63.36
2022-09-01T07:37:17.329Z,65.13
2022-09-01T07:42:56.422Z,66.99
2022-09-01T07:45:30.267Z,62.09
2022-09-01T07:48:06.331Z,62.15
2022-09-01T07:51:34.995Z,60.71
2022-09-01T07:53:31.580Z,63.03
2022-09-01T07:56:01.276Z,61.18
2022-09-01T07:58:33.688Z,58.87
2022-09-01T08:01:02.654Z,59.16
2022-09-01T08:03:30.578Z,58.40
2022-09-01T08:06:07.740Z,58.50
2022-09-01T08:08:36.122Z,59.38
2022-09-01T08:11:05.190Z,58.56
2022-09-01T08:13:41.653Z,59.26
2022-09-01T08:16:17.020Z,59.04
2022-09-01T08:18:48.585Z,57.35
2022-09-01T08:21:17.781Z,57.20
2022-09-01T08:23:46.879Z,56.83
2022-09-01T08:26:15.854Z,54.12
2022-09-01T08:28:47.157Z,49.20
2022-09-01T08:31:17.003Z,45.46
2022-09-01T08:33:44.948Z,42.43
2022-09-01T08:36:13.876Z,38.33
2022-09-01T08:38:41.712Z,39.62
2022-09-01T08:41:28.793Z,38.57
2022-09-01T08:44:10.739Z,40.23
2022-09-01T08:46:42.367Z,39.39
2022-09-01T08:49:25.420Z,37.89
2022-09-01T08:52:06.409Z,37.87
2022-09-01T08:54:43.439Z,38.29
2022-09-01T08:57:42.006Z,40.02
2022-09-01T09:00:13.675Z,40.62
2022-09-01T09:02:50.394Z,40.07
2022-09-01T09:05:40.120Z,41.88
2022-09-01T09:08:45.190Z,40.31
2022-09-01T09:11:23.713Z,35.27
2022-09-01T09:14:35.232Z,35.73
2022-09-01T09:17:04.335Z,36.32
2022-09-01T09:19:36.153Z,37.78
2022-09-01T09:22:07.127Z,38.66
2022-09-01T09:24:50.242Z,42.04
2022-09-01T09:27:24.407Z,38.16
2022-09-01T09:29:54.266Z,36.55
2022-09-01T09:32:35.132Z,36.59
2022-09-01T09:35:23.560Z,34.36
2022-09-01T09:37:50.508Z,34.14
2022-09-01T09:40:20.760Z,36.37
2022-09-01T09:42:56.615Z,40.26
2022-09-01T09:45:27.516Z,36.76
2022-09-01T09:47:56.457Z,36.84
2022-09-01T09:50:32.776Z,38.34
2022-09-01T09:53:28.716Z,34.56
2022-09-01T09:56:20.997Z,32.38
2022-09-01T09:58:50.056Z,34.41
2022-09-01T10:01:30.748Z,31.91
2022-09-01T10:04:00.231Z,32.63
2022-09-01T10:06:41.438Z,33.14
2022-09-01T10:09:29.448Z,37.07
2022-09-01T10:11:58.329Z,35.87
2022-09-01T10:14:52.478Z,35.44
2022-09-01T10:17:26.098Z,36.82
2022-09-01T10:19:58.301Z,35.28
2022-09-01T10:22:25.769Z,33.96
2022-09-01T10:24:52.749Z,31.41
2022-09-01T10:27:25.013Z,32.14
2022-09-01T10:32:56.890Z,34.14
2022-09-01T10:35:32.335Z,35.38
2022-09-01T10:38:02.357Z,34.79
2022-09-01T10:40:33.514Z,35.98
2022-09-01T10:43:25.815Z,36.75
2022-09-01T10:45:58.590Z,35.55
2022-09-01T10:48:46.285Z,31.62
2022-09-01T10:51:19.027Z,32.38
2022-09-01T10:53:54.258Z,33.53
2022-09-01T10:56:36.916Z,32.35
2022-09-01T10:59:43.545Z,33.39
2022-09-01T11:02:35.667Z,33.01
2022-09-01T11:05:00.593Z,33.82
2022-09-01T11:07:50.526Z,32.03
2022-09-01T11:10:32.690Z,33.29
2022-09-01T11:13:31.905Z,33.45
2022-09-01T11:16:52.419Z,31.44
2022-09-01T11:19:44.529Z,31.16
2022-09-01T11:22:38.088Z,32.61
2022-09-01T11:25:38.731Z,34.00
2022-09-01T11:28:09.999Z,36.91
2022-09-01T11:31:00.428Z,37.56
2022-09-01T11:33:41.141Z,33.93
2022-09-01T11:36:37.776Z,32.76
2022-09-01T11:39:20.918Z,32.89
2022-09-01T11:42:19.055Z,32.56
2022-09-01T11:45:06.861Z,32.45
2022-09-01T11:47:41.644Z,36.55
2022-09-01T11:50:17.031Z,37.15
2022-09-01T11:53:02.576Z,37.40
2022-09-01T11:55:35.652Z,38.41
2022-09-01T11:58:03.128Z,38.38
2022-09-01T12:00:39.042Z,37.86
2022-09-01T12:03:26.046Z,38.19
2022-09-01T12:06:18.332Z,39.20
2022-09-01T12:08:56.424Z,39.43
2022-09-01T12:11:34.779Z,40.93
2022-09-01T12:14:03.401Z,41.13
2022-09-01T12:16:35.145Z,40.38
2022-09-01T12:19:01.907Z,41.65
2022-09-01T12:21:30.774Z,40.33
2022-09-01T12:24:15.668Z,39.86
2022-09-01T12:26:42.798Z,39.32
2022-09-01T12:29:11.327Z,40.02
2022-09-01T12:31:41.231Z,40.42
2022-09-01T12:34:38.777Z,41.49
2022-09-01T12:37:16.345Z,41.96
2022-09-01T12:39:45.977Z,42.26
2022-09-01T12:42:28.503Z,42.16
2022-09-01T12:45:02.414Z,41.37
2022-09-01T12:47:38.384Z,38.43
2022-09-01T12:50:06.984Z,38.93
2022-09-01T12:52:35.732Z,38.42
2022-09-01T12:55:03.545Z,39.44
2022-09-01T12:57:34.414Z,38.85
2022-09-01T13:00:33.091Z,38.33
2022-09-01T13:03:08.109Z,40.88
2022-09-01T13:05:42.216Z,38.56
2022-09-01T13:08:12.550Z,39.20
2022-09-01T13:10:43.776Z,39.46
2022-09-01T13:13:11.799Z,36.93
2022-09-01T13:15:42.981Z,37.89
2022-09-01T13:18:10.727Z,37.26
2022-09-01T13:20:38.094Z,37.46
2022-09-01T13:23:04.620Z,37.20
2022-09-01T13:25:31.177Z,37.73
2022-09-01T13:27:57.996Z,35.56
2022-09-01T13:30:29.950Z,36.86
2022-09-01T13:35:44.389Z,36.68
2022-09-01T13:38:11.007Z,36.81
2022-09-01T13:40:37.593Z,34.70
2022-09-01T13:43:04.743Z,34.50
2022-09-01T13:45:32.019Z,37.05
2022-09-01T13:48:15.527Z,37.20
2022-09-01T13:53:30.573Z,36.29
2022-09-01T13:58:28.733Z,37.89
2022-09-01T14:00:55.614Z,36.47
2022-09-01T14:03:23.908Z,39.10
2022-09-01T14:05:51.089Z,36.69
2022-09-01T14:08:21.522Z,37.03
2022-09-01T14:10:50.920Z,36.65
2022-09-01T14:13:19.477Z,38.06
2022-09-01T14:15:47.069Z,36.54
2022-09-01T14:18:15.456Z,36.22
2022-09-01T14:20:44.695Z,38.25
2022-09-01T14:23:11.997Z,39.15
2022-09-01T14:25:43.080Z,39.11
2022-09-01T14:28:09.756Z,38.78
2022-09-01T14:30:37.418Z,37.71
2022-09-01T14:33:04.083Z,37.72
2022-09-01T14:35:33.670Z,37.91
2022-09-01T14:38:02.998Z,38.81
2022-09-01T14:40:29.681Z,37.47
2022-09-01T14:42:56.322Z,39.16
2022-09-01T14:45:25.566Z,37.06
2022-09-01T14:47:54.899Z,37.07
2022-09-01T14:50:23.484Z,34.89
2022-09-01T14:52:53.261Z,37.31
2022-09-01T14:55:21.778Z,36.45
2022-09-01T14:57:48.459Z,37.14
2022-09-01T15:00:15.165Z,37.82
2022-09-01T15:02:43.067Z,36.29
2022-09-01T15:05:11.278Z,38.06
2022-09-01T15:07:38.781Z,36.73
2022-09-01T15:10:08.800Z,36.75
2022-09-01T15:12:36.946Z,37.98
2022-09-01T15:15:03.883Z,35.97
2022-09-01T15:17:30.481Z,36.41
2022-09-01T15:20:17.016Z,36.45
2022-09-01T15:22:43.529Z,36.58
2022-09-01T15:25:10.111Z,38.47
2022-09-01T15:27:40.885Z,38.81
2022-09-01T15:30:14.491Z,36.22
2022-09-01T15:32:45.546Z,34.95
2022-09-01T15:35:13.799Z,33.85
2022-09-01T15:37:40.750Z,34.79
2022-09-01T15:40:08.263Z,34.88
2022-09-01T15:42:36.748Z,34.18
2022-09-01T15:45:07.960Z,35.68
2022-09-01T15:47:34.853Z,34.26
2022-09-01T15:50:03.670Z,34.64
2022-09-01T15:52:31.983Z,35.70
2022-09-01T15:54:59.419Z,34.69
2022-09-01T15:57:26.099Z,35.74
2022-09-01T15:59:52.638Z,35.26
2022-09-01T16:02:21.363Z,34.95
2022-09-01T16:04:48.192Z,35.30
2022-09-01T16:07:14.732Z,36.54
2022-09-01T16:09:41.249Z,35.50
2022-09-01T16:12:08.140Z,35.56
2022-09-01T16:14:35.619Z,35.09
2022-09-01T16:17:09.406Z,35.72
2022-09-01T16:19:53.026Z,37.07
2022-09-01T16:22:47.214Z,34.84
2022-09-01T16:25:21.068Z,36.21
2022-09-01T16:27:47.618Z,35.70
2022-09-01T16:30:29.926Z,35.40
2022-09-01T16:33:03.625Z,36.58
2022-09-01T16:35:47.963Z,35.62
2022-09-01T16:38:31.842Z,36.64
2022-09-01T16:41:09.997Z,34.09
2022-09-01T16:43:50.375Z,34.08
2022-09-01T16:46:45.541Z,34.43
2022-09-01T16:49:27.993Z,36.55
2022-09-01T16:52:22.261Z,35.12
2022-09-01T16:55:13.898Z,36.63
2022-09-01T16:57:49.904Z,36.01
2022-09-01T17:00:19.979Z,36.83
2022-09-01T17:03:19.352Z,37.20
2022-09-01T17:05:46.088Z,37.04
2022-09-01T17:08:23.268Z,36.06
2022-09-01T17:11:07.332Z,36.53
2022-09-01T17:13:40.082Z,35.94
2022-09-01T17:16:23.181Z,36.28
2022-09-01T17:19:01.031Z,36.32
2022-09-01T17:21:32.258Z,36.47
2022-09-01T17:24:33.501Z,36.10
2022-09-01T17:27:07.835Z,38.28
2022-09-01T17:29:41.067Z,38.33
2022-09-01T17:32:10.469Z,37.15
2022-09-01T17:35:20.551Z,40.81
2022-09-01T17:38:04.607Z,38.23
2022-09-01T17:40:46.430Z,41.25
2022-09-01T17:43:27.259Z,40.20
2022-09-01T17:46:04.701Z,42.25
2022-09-01T17:48:49.393Z,41.93
2022-09-01T17:51:44.255Z,40.34
2022-09-01T17:54:40.648Z,42.46
2022-09-01T17:57:19.114Z,41.63
2022-09-01T17:59:57.596Z,44.29
2022-09-01T18:03:19.054Z,44.92
2022-09-01T18:05:54.799Z,44.60
2022-09-01T18:08:43.035Z,46.44
2022-09-01T18:11:26.376Z,46.45
2022-09-01T18:14:02.267Z,45.71
2022-09-01T18:16:34.833Z,45.16
2022-09-01T18:19:16.547Z,47.37
2022-09-01T18:21:49.767Z,47.21
2022-09-01T18:24:20.797Z,47.99
2022-09-01T18:26:51.603Z,48.62
2022-09-01T18:29:18.636Z,47.30
2022-09-01T18:32:27.600Z,49.38
2022-09-01T18:35:19.129Z,50.59
2022-09-01T18:38:19.508Z,49.76
2022-09-01T18:41:17.817Z,51.66
2022-09-01T18:43:54.015Z,52.49
2022-09-01T18:46:43.723Z,51.96
2022-09-01T18:49:53.272Z,50.60
2022-09-01T18:52:48.223Z,51.04
2022-09-01T18:55:23.284Z,54.16
2022-09-01T18:57:56.380Z,54.29
2022-09-01T19:00:33.907Z,55.26
2022-09-01T19:03:31.269Z,54.44
2022-09-01T19:06:10.046Z,55.10
2022-09-01T19:09:01.267Z,54.86
2022-09-01T19:12:01.764Z,55.54
2022-09-01T19:14:52.928Z,55.97
2022-09-01T19:17:33.411Z,55.91
2022-09-01T19:20:08.785Z,55.38
2022-09-01T19:22:50.151Z,56.02
2022-09-01T19:25:36.585Z,55.25
2022-09-01T19:28:39.777Z,56.30
2022-09-01T19:31:30.937Z,57.10
2022-09-01T19:34:02.077Z,55.51
2022-09-01T19:36:53.634Z,57.21
2022-09-01T19:39:28.239Z,56.58
2022-09-01T19:42:16.289Z,55.38
2022-09-01T19:45:12.038Z,57.45
2022-09-01T19:48:08.023Z,57.69
2022-09-01T19:51:03.289Z,57.55
2022-09-01T19:53:38.851Z,57.26
2022-09-01T19:56:05.399Z,56.59
2022-09-01T19:59:00.677Z,57.41
2022-09-01T20:01:47.609Z,57.72
2022-09-01T20:04:39.007Z,57.18
2022-09-01T20:07:14.001Z,56.05
2022-09-01T20:10:08.259Z,56.42
2022-09-01T20:13:09.721Z,58.43
2022-09-01T20:16:00.473Z,59.38
2022-09-01T20:18:32.497Z,59.59
2022-09-01T20:21:02.431Z,59.57
2022-09-01T20:23:37.587Z,59.36
2022-09-01T20:26:15.908Z,59.18
2022-09-01T20:28:54.527Z,59.07
2022-09-01T20:31:27.995Z,59.05
2022-09-01T20:34:11.113Z,59.96
2022-09-01T20:36:51.851Z,59.77
2022-09-01T20:39:47.236Z,60.13
2022-09-01T20:42:31.213Z,59.37
2022-09-01T20:45:01.280Z,59.54
2022-09-01T20:47:31.116Z,61.11
2022-09-01T20:50:00.206Z,60.06
2022-09-01T20:52:36.735Z,58.55
2022-09-01T20:55:23.301Z,59.05
2022-09-01T20:58:06.809Z,56.95
2022-09-01T21:00:43.384Z,58.11
2022-09-01T21:03:33.950Z,53.83
2022-09-01T21:06:21.448Z,53.64
2022-09-01T21:09:09.628Z,53.81
2022-09-01T21:11:58.855Z,53.56
2022-09-01T21:14:41.016Z,52.20
2022-09-01T21:17:26.626Z,50.21
2022-09-01T21:20:08.596Z,50.43
2022-09-01T21:22:35.337Z,48.51
2022-09-01T21:25:02.637Z,49.33
2022-09-01T21:27:51.399Z,50.51
2022-09-01T21:30:19.761Z,50.25
2022-09-01T21:32:46.738Z,49.72
2022-09-01T21:35:19.504Z,49.27
2022-09-01T21:37:46.447Z,48.61
2022-09-01T21:40:13.959Z,48.52
2022-09-01T21:42:40.549Z,48.37
2022-09-01T21:45:10.989Z,48.81
2022-09-01T21:47:38.583Z,50.38
2022-09-01T21:50:05.883Z,50.57
2022-09-01T21:52:32.525Z,49.65
2022-09-01T21:54:59.149Z,50.43
2022-09-01T21:57:25.762Z,49.14
2022-09-01T21:59:52.576Z,50.36
2022-09-01T22:02:20.501Z,51.13
2022-09-01T22:04:48.799Z,49.86
2022-09-01T22:07:17.017Z,50.91
2022-09-01T22:09:44.277Z,50.68
2022-09-01T22:12:11.413Z,49.87
2022-09-01T22:14:38.001Z,50.42
2022-09-01T22:17:04.802Z,50.53
2022-09-01T22:19:35.605Z,50.46
2022-09-01T22:22:03.221Z,49.77
2022-09-01T22:24:29.795Z,49.48
2022-09-01T22:26:56.429Z,49.94
2022-09-01T22:29:23.304Z,48.92
2022-09-01T22:31:49.831Z,49.83
2022-09-01T22:34:16.519Z,49.76
2022-09-01T22:36:46.518Z,49.35
2022-09-01T22:39:15.020Z,50.23
2022-09-01T22:41:42.192Z,49.17
2022-09-01T22:44:09.810Z,50.09
2022-09-01T22:46:37.884Z,50.38
2022-09-01T22:49:05.676Z,49.75
2022-09-01T22:51:32.877Z,49.49
2022-09-01T22:53:59.614Z,50.71
2022-09-01T22:56:32.311Z,51.21
2022-09-01T22:59:03.018Z,51.20
2022-09-01T23:01:33.368Z,50.47
2022-09-01T23:04:01.817Z,49.45
2022-09-01T23:06:29.815Z,50.22
2022-09-01T23:08:58.157Z,50.50
2022-09-01T23:11:25.843Z,50.36
2022-09-01T23:13:53.125Z,50.79
2022-09-01T23:16:20.836Z,50.64
2022-09-01T23:18:49.459Z,49.93
2022-09-01T23:21:18.949Z,50.34
2022-09-01T23:23:46.255Z,50.61
2022-09-01T23:26:15.097Z,50.60
2022-09-01T23:28:44.078Z,50.37
2022-09-01T23:31:20.140Z,50.96
2022-09-01T23:33:48.809Z,49.98
2022-09-01T23:36:18.684Z,50.60
2022-09-01T23:38:46.666Z,51.36
2022-09-01T23:41:17.630Z,49.80
2022-09-01T23:43:44.647Z,50.85
2022-09-01T23:46:27.155Z,50.16
2022-09-01T23:48:54.635Z,50.75
2022-09-01T23:51:22.875Z,51.21
2022-09-01T23:53:49.761Z,49.80
2022-09-01T23:56:22.039Z,50.25
2022-09-01T23:58:48.992Z,49.90
